createdAt,value
2022-09-16T00:02:15.279Z,11.74
2022-09-16T00:05:16.744Z,11.74
2022-09-16T00:08:18.315Z,11.64
2022-09-16T00:11:19.708Z,11.60
2022-09-16T00:14:21.125Z,11.63
2022-09-16T00:17:22.795Z,11.66
2022-09-16T00:20:24.167Z,11.67
2022-09-16T00:23:25.551Z,11.68
2022-09-16T00:26:27.043Z,11.65
2022-09-16T00:29:29.555Z,11.65
2022-09-16T00:32:30.947Z,11.68
2022-09-16T00:35:32.313Z,11.75
2022-09-16T00:38:33.713Z,11.74
2022-09-16T00:41:36.204Z,11.70
2022-09-16T00:44:56.010Z,11.62
2022-09-16T00:48:05.456Z,11.58
2022-09-16T00:51:07.220Z,11.55
2022-09-16T00:54:10.062Z,11.53
2022-09-16T00:57:11.482Z,11.50
2022-09-16T01:00:13.895Z,11.47
2022-09-16T01:03:15.338Z,11.50
2022-09-16T01:06:16.761Z,11.48
2022-09-16T01:09:18.293Z,11.46
2022-09-16T01:12:22.487Z,11.47
2022-09-16T01:15:24.447Z,11.41
2022-09-16T01:18:36.251Z,11.45
2022-09-16T01:21:44.490Z,11.46
2022-09-16T01:24:49.627Z,11.47
2022-09-16T01:28:09.688Z,11.42
2022-09-16T01:31:13.034Z,11.31
2022-09-16T01:34:14.475Z,11.28
2022-09-16T01:37:20.635Z,11.28
2022-09-16T01:40:42.328Z,11.27
2022-09-16T01:43:54.851Z,11.24
2022-09-16T01:46:59.856Z,11.22
2022-09-16T01:50:07.657Z,11.15
2022-09-16T01:53:19.122Z,11.18
2022-09-16T01:56:28.022Z,11.17
2022-09-16T01:59:41.585Z,11.12
2022-09-16T02:02:56.723Z,11.06
2022-09-16T02:05:58.995Z,11.04
2022-09-16T02:09:02.032Z,11.00
2022-09-16T02:12:05.641Z,10.98
2022-09-16T02:15:08.760Z,10.96
2022-09-16T02:18:11.325Z,11.00
2022-09-16T02:21:14.524Z,11.07
2022-09-16T02:24:16.837Z,11.12
2022-09-16T02:27:18.638Z,11.16
2022-09-16T02:30:20.711Z,11.15
2022-09-16T02:33:22.499Z,11.16
2022-09-16T02:36:24.440Z,11.19
2022-09-16T02:39:28.967Z,11.19
2022-09-16T02:42:30.587Z,11.18
2022-09-16T02:45:44.097Z,11.14
2022-09-16T02:48:59.526Z,11.23
2022-09-16T02:52:04.859Z,11.23
2022-09-16T02:55:06.470Z,11.34
2022-09-16T02:58:07.859Z,11.38
2022-09-16T03:01:09.293Z,11.31
2022-09-16T03:04:11.335Z,11.30
2022-09-16T03:07:12.789Z,11.29
2022-09-16T03:10:15.124Z,11.23
2022-09-16T03:13:18.900Z,11.25
2022-09-16T03:16:23.400Z,11.34
2022-09-16T03:19:45.135Z,11.37
2022-09-16T03:22:58.739Z,11.38
2022-09-16T03:26:06.206Z,11.33
2022-09-16T03:29:25.616Z,11.32
2022-09-16T03:32:34.740Z,11.39
2022-09-16T03:35:46.045Z,11.43
2022-09-16T03:38:48.616Z,11.46
2022-09-16T03:41:50.051Z,11.46
2022-09-16T03:44:51.438Z,11.44
2022-09-16T03:47:52.908Z,11.39
2022-09-16T03:50:54.313Z,11.41
2022-09-16T03:53:55.800Z,11.43
2022-09-16T03:56:57.200Z,11.50
2022-09-16T03:59:58.795Z,11.47
2022-09-16T04:03:00.515Z,11.49
2022-09-16T04:06:02.072Z,11.54
2022-09-16T04:09:04.415Z,11.46
2022-09-16T04:12:07.685Z,11.50
2022-09-16T04:15:09.338Z,11.57
2022-09-16T04:18:10.688Z,11.57
2022-09-16T04:21:12.141Z,11.49
2022-09-16T04:24:13.762Z,11.53
2022-09-16T04:27:15.214Z,11.58
2022-09-16T04:30:16.805Z,11.65
2022-09-16T04:33:18.271Z,11.68
2022-09-16T04:36:22.818Z,11.68
2022-09-16T04:39:24.568Z,11.70
2022-09-16T04:42:25.988Z,11.67
2022-09-16T04:45:27.488Z,11.60
2022-09-16T04:48:28.928Z,11.58
2022-09-16T04:51:32.192Z,11.64
2022-09-16T04:54:33.714Z,11.66
2022-09-16T04:57:35.227Z,11.66
2022-09-16T05:00:39.033Z,11.58
2022-09-16T05:03:41.117Z,11.53
2022-09-16T05:06:44.601Z,11.62
2022-09-16T05:09:46.275Z,11.60
2022-09-16T05:12:53.987Z,11.59
2022-09-16T05:15:55.570Z,11.57
2022-09-16T05:18:57.303Z,11.61
2022-09-16T05:21:58.860Z,11.64
2022-09-16T05:25:00.312Z,11.62
2022-09-16T05:28:01.864Z,11.68
2022-09-16T05:31:09.443Z,11.71
2022-09-16T05:34:13.901Z,11.66
2022-09-16T05:37:15.421Z,11.72
2022-09-16T05:40:17.015Z,11.79
2022-09-16T05:43:18.444Z,11.79
2022-09-16T05:46:20.850Z,11.73
2022-09-16T05:49:23.582Z,11.70
2022-09-16T05:52:25.540Z,11.75
2022-09-16T05:55:26.933Z,11.72
2022-09-16T05:58:28.713Z,11.72
2022-09-16T06:01:33.975Z,11.64
2022-09-16T06:04:35.703Z,11.64
2022-09-16T06:07:37.597Z,11.56
2022-09-16T06:10:39.512Z,11.36
2022-09-16T06:13:40.914Z,11.18
2022-09-16T06:16:42.415Z,11.17
2022-09-16T06:19:43.832Z,11.02
2022-09-16T06:22:45.465Z,11.00
2022-09-16T06:25:46.895Z,11.01
2022-09-16T06:28:48.417Z,10.81
2022-09-16T06:31:49.897Z,10.77
2022-09-16T06:34:51.284Z,10.72
2022-09-16T06:37:53.575Z,10.73
2022-09-16T06:40:57.727Z,10.58
2022-09-16T06:43:59.163Z,10.60
2022-09-16T06:47:00.569Z,10.56
2022-09-16T06:50:02.093Z,10.59
2022-09-16T06:53:03.683Z,10.63
2022-09-16T06:56:06.150Z,10.61
2022-09-16T06:59:07.632Z,10.59
2022-09-16T07:02:09.911Z,10.55
2022-09-16T07:05:12.263Z,10.54
2022-09-16T07:08:13.632Z,10.64
2022-09-16T07:11:21.801Z,10.64
2022-09-16T07:14:23.212Z,10.60
2022-09-16T07:17:27.208Z,10.62
2022-09-16T07:20:28.714Z,10.67
2022-09-16T07:23:33.899Z,10.65
2022-09-16T07:26:35.476Z,10.59
2022-09-16T07:29:36.867Z,10.57
2022-09-16T07:32:38.439Z,10.58
2022-09-16T07:35:39.873Z,10.65
2022-09-16T07:38:41.236Z,10.68
2022-09-16T07:41:43.243Z,10.78
2022-09-16T07:44:44.668Z,10.74
2022-09-16T07:47:48.702Z,10.68
2022-09-16T07:50:57.707Z,10.75
2022-09-16T07:54:00.632Z,10.68
2022-09-16T07:57:02.028Z,10.84
2022-09-16T08:00:03.853Z,10.82
2022-09-16T08:03:06.168Z,10.76
2022-09-16T08:06:09.604Z,10.79
2022-09-16T08:09:37.211Z,10.78
2022-09-16T08:12:33.492Z,10.82
2022-09-16T08:15:35.158Z,10.85
2022-09-16T08:18:36.736Z,10.85
2022-09-16T08:21:38.106Z,10.75
2022-09-16T08:24:39.925Z,10.77
2022-09-16T08:27:41.351Z,10.86
2022-09-16T08:30:42.918Z,10.95
2022-09-16T08:33:44.361Z,11.11
2022-09-16T08:36:45.807Z,11.11
2022-09-16T08:39:47.779Z,11.03
2022-09-16T08:43:01.718Z,11.09
2022-09-16T08:46:20.825Z,11.18
2022-09-16T08:49:44.143Z,11.20
2022-09-16T08:52:47.938Z,11.18
2022-09-16T08:55:50.162Z,11.31
2022-09-16T08:58:53.487Z,11.39
2022-09-16T09:02:11.224Z,11.41
2022-09-16T09:05:31.510Z,11.28
2022-09-16T09:08:32.883Z,11.32
2022-09-16T09:11:43.453Z,11.49
2022-09-16T09:14:54.920Z,11.57
2022-09-16T09:18:16.046Z,11.73
2022-09-16T09:21:31.342Z,11.86
2022-09-16T09:24:56.682Z,11.74
2022-09-16T09:27:58.363Z,11.71
2022-09-16T09:31:08.722Z,11.59
2022-09-16T09:34:12.188Z,11.72
2022-09-16T09:37:22.653Z,11.77
2022-09-16T09:40:43.623Z,11.94
2022-09-16T09:43:51.914Z,12.07
2022-09-16T09:46:54.170Z,12.02
2022-09-16T09:49:56.682Z,12.12
2022-09-16T09:53:02.068Z,12.06
2022-09-16T09:56:15.912Z,11.92
2022-09-16T09:59:23.496Z,11.96
2022-09-16T10:02:25.368Z,12.16
2022-09-16T10:05:27.547Z,12.22
2022-09-16T10:08:37.992Z,12.40
2022-09-16T10:11:46.142Z,12.53
2022-09-16T10:14:48.083Z,12.54
2022-09-16T10:17:50.088Z,12.58
2022-09-16T10:21:17.948Z,12.60
2022-09-16T10:24:31.887Z,12.58
2022-09-16T10:27:36.743Z,12.56
2022-09-16T10:30:48.463Z,12.57
2022-09-16T10:33:49.824Z,12.64
2022-09-16T10:37:01.031Z,12.68
2022-09-16T10:40:04.885Z,12.67
2022-09-16T10:43:06.980Z,12.65
2022-09-16T10:46:08.633Z,12.48
2022-09-16T10:49:10.434Z,12.60
2022-09-16T10:52:15.364Z,12.86
2022-09-16T10:55:19.767Z,13.01
2022-09-16T10:58:21.142Z,13.28
2022-09-16T11:01:23.201Z,13.35
2022-09-16T11:04:40.023Z,13.57
2022-09-16T11:07:42.841Z,13.92
2022-09-16T11:10:51.745Z,14.03
2022-09-16T11:14:04.960Z,13.90
2022-09-16T11:17:15.555Z,13.77
2022-09-16T11:20:33.217Z,13.68
2022-09-16T11:23:38.480Z,13.27
2022-09-16T11:26:50.110Z,13.26
2022-09-16T11:29:54.648Z,13.08
2022-09-16T11:32:58.179Z,13.24
2022-09-16T11:36:10.234Z,13.18
2022-09-16T11:39:17.837Z,13.14
2022-09-16T11:42:26.156Z,13.12
2022-09-16T11:45:40.848Z,13.11
2022-09-16T11:48:54.392Z,12.99
2022-09-16T11:52:14.601Z,12.93
2022-09-16T11:55:34.775Z,12.75
2022-09-16T11:58:42.028Z,12.30
2022-09-16T12:01:45.073Z,12.25
2022-09-16T12:05:01.761Z,12.44
2022-09-16T12:08:23.019Z,12.51
2022-09-16T12:11:27.279Z,12.98
2022-09-16T12:14:30.196Z,13.75
2022-09-16T12:17:32.398Z,14.34
2022-09-16T12:20:35.453Z,14.72
2022-09-16T12:23:40.442Z,14.67
2022-09-16T12:26:46.284Z,14.20
2022-09-16T12:29:56.452Z,15.47
2022-09-16T12:33:10.976Z,15.68
2022-09-16T12:36:13.454Z,14.78
2022-09-16T12:39:14.890Z,13.66
2022-09-16T12:42:16.353Z,13.44
2022-09-16T12:45:30.037Z,13.50
2022-09-16T12:48:42.569Z,14.81
2022-09-16T12:51:50.502Z,16.09
2022-09-16T12:55:11.100Z,16.02
2022-09-16T12:58:15.479Z,15.64
2022-09-16T13:01:27.205Z,14.91
2022-09-16T13:04:31.215Z,17.00
2022-09-16T13:07:33.216Z,17.27
2022-09-16T13:10:58.429Z,15.80
2022-09-16T13:14:00.267Z,16.08
2022-09-16T13:17:02.386Z,16.18
2022-09-16T13:20:07.397Z,14.96
2022-09-16T13:23:13.170Z,14.52
2022-09-16T13:26:14.988Z,14.23
2022-09-16T13:29:35.195Z,14.57
2022-09-16T13:32:36.561Z,14.21
2022-09-16T13:35:39.130Z,14.34
2022-09-16T13:38:41.358Z,14.36
2022-09-16T13:41:43.825Z,15.02
2022-09-16T13:44:45.411Z,14.66
2022-09-16T13:47:49.763Z,14.74
2022-09-16T13:50:52.927Z,14.64
2022-09-16T13:53:54.622Z,14.33
2022-09-16T13:57:25.950Z,14.21
2022-09-16T14:00:36.011Z,14.12
2022-09-16T14:03:41.889Z,14.08
2022-09-16T14:06:52.677Z,14.06
2022-09-16T14:10:01.566Z,14.43
2022-09-16T14:13:11.359Z,14.51
2022-09-16T14:16:15.956Z,14.71
2022-09-16T14:19:20.379Z,14.46
2022-09-16T14:22:23.060Z,14.47
2022-09-16T14:25:29.460Z,14.60
2022-09-16T14:28:32.329Z,14.67
2022-09-16T14:31:35.375Z,14.36
2022-09-16T14:34:37.067Z,14.32
2022-09-16T14:37:38.589Z,14.25
2022-09-16T14:40:40.078Z,14.23
2022-09-16T14:43:41.526Z,14.18
2022-09-16T14:46:43.347Z,14.25
2022-09-16T14:49:44.826Z,14.11
2022-09-16T14:52:53.165Z,14.08
2022-09-16T14:58:56.173Z,13.92
2022-09-16T15:01:58.945Z,13.85
2022-09-16T15:05:19.141Z,13.73
2022-09-16T15:08:27.703Z,13.63
2022-09-16T15:11:47.111Z,13.62
2022-09-16T15:14:49.337Z,13.57
2022-09-16T15:17:59.236Z,13.55
2022-09-16T15:21:03.615Z,13.49
2022-09-16T15:24:06.047Z,13.58
2022-09-16T15:27:07.485Z,13.59
2022-09-16T15:30:20.113Z,13.66
2022-09-16T15:33:29.818Z,13.63
2022-09-16T15:36:34.899Z,13.56
2022-09-16T15:39:37.713Z,13.66
2022-09-16T15:42:39.181Z,13.71
2022-09-16T15:45:40.896Z,13.72
2022-09-16T15:48:45.933Z,13.69
2022-09-16T15:51:48.228Z,13.67
2022-09-16T15:54:53.840Z,13.61
2022-09-16T15:58:01.266Z,13.57
2022-09-16T16:01:03.903Z,13.66
2022-09-16T16:04:06.496Z,13.63
2022-09-16T16:07:09.024Z,13.51
2022-09-16T16:10:12.107Z,13.47
2022-09-16T16:13:13.581Z,13.43
2022-09-16T16:16:15.250Z,13.34
2022-09-16T16:19:16.819Z,13.28
2022-09-16T16:22:18.299Z,13.20
2022-09-16T16:25:19.711Z,13.15
2022-09-16T16:28:21.066Z,13.03
2022-09-16T16:31:22.535Z,13.03
2022-09-16T16:34:23.922Z,13.03
2022-09-16T16:37:44.971Z,13.03
2022-09-16T16:40:50.990Z,12.93
2022-09-16T16:43:52.357Z,12.79
2022-09-16T16:46:54.141Z,12.76
2022-09-16T16:49:55.562Z,12.64
2022-09-16T16:52:56.959Z,12.64
2022-09-16T16:56:14.514Z,12.47
2022-09-16T16:59:17.028Z,12.36
2022-09-16T17:02:18.435Z,12.29
2022-09-16T17:05:20.164Z,12.23
2022-09-16T17:08:21.684Z,12.29
2022-09-16T17:11:26.084Z,12.27
2022-09-16T17:14:28.182Z,12.30
2022-09-16T17:17:31.762Z,12.18
2022-09-16T17:20:33.390Z,12.17
2022-09-16T17:23:34.784Z,12.13
2022-09-16T17:26:36.378Z,12.06
2022-09-16T17:29:37.831Z,11.98
2022-09-16T17:32:39.173Z,11.99
2022-09-16T17:35:40.547Z,11.99
2022-09-16T17:38:42.006Z,12.02
2022-09-16T17:41:43.787Z,12.06
2022-09-16T17:44:45.283Z,12.07
2022-09-16T17:47:46.715Z,12.05
2022-09-16T17:50:51.744Z,12.03
2022-09-16T17:53:53.174Z,12.06
2022-09-16T17:56:54.558Z,12.03
2022-09-16T17:59:56.024Z,11.99
2022-09-16T18:02:57.526Z,11.96
2022-09-16T18:06:02.953Z,11.90
2022-09-16T18:09:04.548Z,11.85
2022-09-16T18:12:06.050Z,11.83
2022-09-16T18:15:07.511Z,11.74
2022-09-16T18:18:10.155Z,11.71
2022-09-16T18:21:14.348Z,11.67
2022-09-16T18:24:15.818Z,11.64
2022-09-16T18:27:17.304Z,11.57
2022-09-16T18:30:18.769Z,11.50
2022-09-16T18:33:20.114Z,11.45
2022-09-16T18:36:25.351Z,11.43
2022-09-16T18:39:26.784Z,11.46
2022-09-16T18:42:28.130Z,11.39
2022-09-16T18:45:31.160Z,11.35
2022-09-16T18:48:32.621Z,11.24
2022-09-16T18:51:36.773Z,11.26
2022-09-16T18:54:39.262Z,11.17
2022-09-16T18:57:40.646Z,11.07
2022-09-16T19:00:42.032Z,11.03
2022-09-16T19:03:43.894Z,11.01
2022-09-16T19:06:47.603Z,10.97
2022-09-16T19:09:49.258Z,10.93
2022-09-16T19:12:50.640Z,10.93
2022-09-16T19:15:55.443Z,11.05
2022-09-16T19:18:57.065Z,10.99
2022-09-16T19:21:58.669Z,10.83
2022-09-16T19:25:01.499Z,10.88
2022-09-16T19:28:03.108Z,10.88
2022-09-16T19:31:05.202Z,10.79
2022-09-16T19:34:06.823Z,10.69
2022-09-16T19:37:08.242Z,10.63
2022-09-16T19:40:09.768Z,10.57
2022-09-16T19:43:11.514Z,10.54
2022-09-16T19:46:16.764Z,10.57
2022-09-16T19:49:19.741Z,10.58
2022-09-16T19:52:21.147Z,10.60
2022-09-16T19:55:22.574Z,10.60
2022-09-16T19:58:24.149Z,10.56
2022-09-16T20:01:26.681Z,10.53
2022-09-16T20:04:28.116Z,10.49
2022-09-16T20:07:30.650Z,10.51
2022-09-16T20:10:32.366Z,10.49
2022-09-16T20:13:36.798Z,10.45
2022-09-16T20:16:38.810Z,10.35
2022-09-16T20:19:40.338Z,10.38
2022-09-16T20:22:41.729Z,10.34
2022-09-16T20:25:43.456Z,10.22
2022-09-16T20:28:45.374Z,10.11
2022-09-16T20:31:47.362Z,10.14
2022-09-16T20:34:48.799Z,10.13
2022-09-16T20:37:50.185Z,9.94
2022-09-16T20:40:51.656Z,9.91
2022-09-16T20:43:53.023Z,9.99
2022-09-16T20:46:54.462Z,9.99
2022-09-16T20:49:55.960Z,10.01
2022-09-16T20:52:57.309Z,9.92
2022-09-16T20:56:02.418Z,9.89
2022-09-16T20:59:03.827Z,9.86
2022-09-16T21:02:05.246Z,9.82
2022-09-16T21:05:06.860Z,9.83
2022-09-16T21:08:11.117Z,9.75
2022-09-16T21:11:16.172Z,9.64
2022-09-16T21:14:18.061Z,9.69
2022-09-16T21:17:21.629Z,9.64
2022-09-16T21:20:23.054Z,9.52
2022-09-16T21:23:25.439Z,9.64
2022-09-16T21:26:28.632Z,9.60
2022-09-16T21:29:31.049Z,9.59
2022-09-16T21:32:32.569Z,9.60
2022-09-16T21:35:33.902Z,9.56
2022-09-16T21:38:35.267Z,9.53
2022-09-16T21:41:36.812Z,9.42
2022-09-16T21:44:38.185Z,9.55
2022-09-16T21:47:39.498Z,9.59
2022-09-16T21:50:41.781Z,9.57
2022-09-16T21:53:43.212Z,9.59
2022-09-16T21:56:44.559Z,9.60
2022-09-16T21:59:46.126Z,9.50
2022-09-16T22:02:47.506Z,9.51
2022-09-16T22:05:48.870Z,9.54
2022-09-16T22:08:50.297Z,9.57
2022-09-16T22:11:51.998Z,9.57
2022-09-16T22:14:53.313Z,9.61
2022-09-16T22:17:54.693Z,9.54
2022-09-16T22:20:57.982Z,9.50
2022-09-16T22:23:59.522Z,9.39
2022-09-16T22:27:00.894Z,9.38
2022-09-16T22:30:02.207Z,9.37
2022-09-16T22:33:03.541Z,9.44
2022-09-16T22:36:05.467Z,9.39
2022-09-16T22:39:07.985Z,9.27
2022-09-16T22:42:09.304Z,9.29
2022-09-16T22:45:10.690Z,9.20
2022-09-16T22:48:11.999Z,9.14
2022-09-16T22:51:13.744Z,9.21
2022-09-16T22:54:15.797Z,9.19
2022-09-16T22:57:17.122Z,9.23
2022-09-16T23:00:18.442Z,9.26
2022-09-16T23:03:20.076Z,9.03
2022-09-16T23:06:21.456Z,9.04
2022-09-16T23:09:23.285Z,9.12
2022-09-16T23:12:25.010Z,9.13
2022-09-16T23:15:27.045Z,9.16
2022-09-16T23:18:29.874Z,9.18
2022-09-16T23:21:31.402Z,9.16
2022-09-16T23:24:32.749Z,9.12
2022-09-16T23:27:34.905Z,9.10
2022-09-16T23:30:36.225Z,9.03
2022-09-16T23:33:37.674Z,8.99
2022-09-16T23:36:39.375Z,8.99
2022-09-16T23:39:40.681Z,9.05
2022-09-16T23:42:42.754Z,9.01
2022-09-16T23:45:45.317Z,8.97
2022-09-16T23:48:46.770Z,9.02
2022-09-16T23:51:48.153Z,9.08
2022-09-16T23:54:49.467Z,9.07
2022-09-16T23:57:50.797Z,9.04
